X  Close Metar Aviation Weather Data        KDWH George Bush Intercontinental Airport
Temperature
27.8°C Temperature
22.8°C Dewpoint
74% Humidity



Wind
0 KM/H
0 MPH
0 M/S
0 KTS



Calm
N
Current Conditions

Clear Clear
Pressure 1012 (hPa) - 29.89 (inHg)
Visibility 10 (mile) - 16 (km)
Airport
Airport-code KDWH

Location: George Bush Intercontinental Airport
Distance: 12 (km)

Metar:
METAR KDWH 130153Z 00000KT 10SM CLR 28/23 A2990 RMK AO2 SLP121 T02780228

Time: 2024-06-12 20:53 CDT